createdAt,value
2022-08-14T00:01:54.695Z,100122.47
2022-08-14T00:06:52.099Z,100113.28
2022-08-14T00:11:48.618Z,100117.28
2022-08-14T00:16:45.349Z,100115.53
2022-08-14T00:21:41.847Z,100111.53
2022-08-14T00:26:38.597Z,100098.91
2022-08-14T00:31:44.253Z,100105.22
2022-08-14T00:36:49.113Z,100094.03
2022-08-14T00:41:47.635Z,100096.63
2022-08-14T00:46:45.639Z,100098.84
2022-08-14T00:51:44.536Z,100084.19
2022-08-14T00:56:41.030Z,100080.25
2022-08-14T01:01:39.163Z,100079.84
2022-08-14T01:06:37.799Z,100071.00
2022-08-14T01:11:38.754Z,100064.03
2022-08-14T01:16:41.563Z,100070.41
2022-08-14T01:21:46.774Z,100055.75
2022-08-14T01:26:50.708Z,100052.09
2022-08-14T01:31:52.275Z,100056.53
2022-08-14T01:36:49.147Z,100051.88
2022-08-14T01:41:56.238Z,100045.84
2022-08-14T01:47:01.171Z,100035.16
2022-08-14T01:51:57.783Z,100037.03
2022-08-14T01:56:57.449Z,100034.22
2022-08-14T02:01:58.833Z,100030.94
2022-08-14T02:06:55.610Z,100019.97
2022-08-14T02:11:54.694Z,100012.47
2022-08-14T02:16:54.215Z,100013.50
2022-08-14T02:21:54.690Z,100015.19
2022-08-14T02:28:18.951Z,100001.16
2022-08-14T02:32:11.131Z,100002.09
2022-08-14T02:37:26.745Z,99999.22
2022-08-14T02:42:54.390Z,99995.41
2022-08-14T02:47:57.348Z,99977.44
2022-08-14T02:52:57.520Z,99967.38
2022-08-14T02:58:03.718Z,99968.25
2022-08-14T03:03:03.086Z,99962.09
2022-08-14T03:08:11.215Z,99964.38
2022-08-14T03:13:13.676Z,99956.66
2022-08-14T03:18:18.538Z,99950.81
2022-08-14T03:23:15.005Z,99937.25
2022-08-14T03:28:14.361Z,99929.69
2022-08-14T03:33:27.876Z,99930.88
2022-08-14T03:39:14.271Z,99933.41
2022-08-14T03:43:57.757Z,99915.28
2022-08-14T03:48:57.974Z,99909.69
2022-08-14T03:53:59.779Z,99907.38
2022-08-14T03:59:04.251Z,99902.81
2022-08-14T04:04:08.273Z,99900.31
2022-08-14T04:09:07.108Z,99895.94
2022-08-14T04:14:05.892Z,99900.97
2022-08-14T04:19:04.594Z,99891.84
2022-08-14T04:24:01.742Z,99888.81
2022-08-14T04:29:08.671Z,99885.81
2022-08-14T04:34:20.655Z,99876.78
2022-08-14T04:39:38.997Z,99884.81
2022-08-14T04:44:43.498Z,99879.03
2022-08-14T04:49:57.344Z,99889.84
2022-08-14T04:54:55.322Z,99885.19
2022-08-14T04:59:54.598Z,99888.00
2022-08-14T05:04:58.710Z,99893.63
2022-08-14T05:09:55.344Z,99894.66
2022-08-14T05:14:54.533Z,99899.72
2022-08-14T05:21:54.366Z,99901.69
2022-08-14T05:25:09.357Z,99887.81
2022-08-14T05:30:07.451Z,99894.94
2022-08-14T05:35:05.342Z,99904.03
2022-08-14T05:40:02.048Z,99899.97
2022-08-14T05:44:59.528Z,99878.94
2022-08-14T05:49:58.193Z,99875.97
2022-08-14T05:54:54.745Z,99888.91
2022-08-14T05:59:51.101Z,99888.81
2022-08-14T06:04:49.325Z,99895.31
2022-08-14T06:09:52.321Z,99903.06
2022-08-14T06:14:48.985Z,99905.34
2022-08-14T06:19:45.446Z,99904.22
2022-08-14T06:24:43.988Z,99903.69
2022-08-14T06:29:40.695Z,99906.91
2022-08-14T06:35:11.764Z,99895.13
2022-08-14T06:39:55.788Z,99886.88
2022-08-14T06:44:53.311Z,99895.50
2022-08-14T06:49:57.697Z,99903.31
2022-08-14T06:54:55.307Z,99892.91
2022-08-14T06:59:52.140Z,99886.63
2022-08-14T07:05:11.493Z,99896.56
2022-08-14T07:10:17.813Z,99901.34
2022-08-14T07:15:14.386Z,99896.41
2022-08-14T07:20:11.087Z,99889.47
2022-08-14T07:25:10.379Z,99886.25
2022-08-14T07:30:09.112Z,99889.28
2022-08-14T07:35:24.009Z,99879.59
2022-08-14T07:40:27.767Z,99869.09
2022-08-14T07:45:26.588Z,99867.56
2022-08-14T07:50:34.412Z,99855.31
2022-08-14T07:55:31.569Z,99867.72
2022-08-14T08:00:31.166Z,99869.72
2022-08-14T08:05:28.052Z,99863.72
2022-08-14T08:11:01.506Z,99868.91
2022-08-14T08:15:53.826Z,99869.63
2022-08-14T08:20:53.657Z,99857.69
2022-08-14T08:25:51.625Z,99862.94
2022-08-14T08:30:53.000Z,99860.75
2022-08-14T08:35:50.414Z,99865.28
2022-08-14T08:40:51.895Z,99845.72
2022-08-14T08:46:09.149Z,99843.09
2022-08-14T08:51:30.921Z,99832.78
2022-08-14T08:56:49.991Z,99828.84
2022-08-14T09:01:58.801Z,99812.34
2022-08-14T09:07:09.112Z,99811.91
2022-08-14T09:12:13.879Z,99793.56
2022-08-14T09:17:11.696Z,99791.84
2022-08-14T09:22:33.060Z,99793.13
2022-08-14T09:27:25.284Z,99775.03
2022-08-14T09:32:59.402Z,99779.13
2022-08-14T09:38:04.818Z,99778.34
2022-08-14T09:43:32.974Z,99779.31
2022-08-14T09:48:30.936Z,99771.03
2022-08-14T09:54:18.204Z,99767.53
2022-08-14T09:59:22.232Z,99757.59
2022-08-14T10:04:33.173Z,99755.03
2022-08-14T10:09:34.728Z,99760.88
2022-08-14T10:14:36.322Z,99750.72
2022-08-14T10:19:35.941Z,99743.41
2022-08-14T10:24:46.301Z,99748.59
2022-08-14T10:29:52.785Z,99737.91
2022-08-14T10:34:52.484Z,99729.59
2022-08-14T10:40:10.418Z,99721.41
2022-08-14T10:45:23.003Z,99720.34
2022-08-14T10:50:35.306Z,99709.38
2022-08-14T10:55:39.345Z,99706.81
2022-08-14T11:00:55.494Z,99694.03
2022-08-14T11:05:55.933Z,99693.34
2022-08-14T11:10:57.738Z,99687.41
2022-08-14T11:16:00.413Z,99696.19
2022-08-14T11:21:00.589Z,99687.34
2022-08-14T11:26:00.459Z,99694.75
2022-08-14T11:30:57.427Z,99675.84
2022-08-14T11:35:53.808Z,99670.09
2022-08-14T11:40:58.240Z,99663.78
2022-08-14T11:45:57.203Z,99655.22
2022-08-14T11:50:54.435Z,99654.69
2022-08-14T11:55:57.841Z,99635.66
2022-08-14T12:00:59.900Z,99641.72
2022-08-14T12:06:21.594Z,99640.06
2022-08-14T12:11:24.687Z,99642.34
2022-08-14T12:16:22.716Z,99637.06
2022-08-14T12:21:22.237Z,99625.66
2022-08-14T12:26:39.632Z,99619.44
2022-08-14T12:31:46.717Z,99601.00
2022-08-14T12:36:43.671Z,99597.38
2022-08-14T12:41:53.871Z,99593.56
2022-08-14T12:47:03.555Z,99575.06
2022-08-14T12:52:03.429Z,99569.75
2022-08-14T12:57:19.346Z,99586.59
2022-08-14T13:02:25.441Z,99588.69
2022-08-14T13:07:24.108Z,99580.41
2022-08-14T13:12:32.391Z,99568.16
2022-08-14T13:17:38.114Z,99565.81
2022-08-14T13:22:38.562Z,99575.16
2022-08-14T13:27:40.575Z,99562.81
2022-08-14T13:32:40.572Z,99545.47
2022-08-14T13:37:37.224Z,99540.94
2022-08-14T13:42:34.673Z,99531.72
2022-08-14T13:47:32.931Z,99506.84
2022-08-14T13:52:55.903Z,99502.47
2022-08-14T13:58:04.587Z,99510.41
2022-08-14T14:03:06.104Z,99478.47
2022-08-14T14:08:05.127Z,99493.53
2022-08-14T14:13:04.394Z,99483.28
2022-08-14T14:18:02.337Z,99474.03
2022-08-14T14:23:02.294Z,99467.19
2022-08-14T14:28:00.279Z,99442.31
2022-08-14T14:33:05.194Z,99435.31
2022-08-14T14:38:08.921Z,99430.97
2022-08-14T14:43:11.149Z,99410.59
2022-08-14T14:48:09.207Z,99402.19
2022-08-14T14:53:12.759Z,99395.53
2022-08-14T14:58:10.268Z,99405.28
2022-08-14T15:03:10.605Z,99406.19
2022-08-14T15:08:06.969Z,99411.16
2022-08-14T15:13:05.202Z,99400.34
2022-08-14T15:18:02.098Z,99397.31
2022-08-14T15:23:08.219Z,99383.09
2022-08-14T15:28:13.094Z,99397.88
2022-08-14T15:33:37.820Z,99395.91
2022-08-14T15:38:55.935Z,99388.38
2022-08-14T15:43:53.325Z,99398.19
2022-08-14T15:48:53.612Z,99380.59
2022-08-14T15:53:52.303Z,99374.72
2022-08-14T15:58:48.636Z,99368.91
2022-08-14T16:03:48.241Z,99366.25
2022-08-14T16:08:50.367Z,99368.00
2022-08-14T16:13:57.357Z,99368.28
2022-08-14T16:18:58.906Z,99350.81
2022-08-14T16:23:56.375Z,99348.59
2022-08-14T16:29:02.459Z,99351.25
2022-08-14T16:34:00.450Z,99359.09
2022-08-14T16:39:16.795Z,99350.28
2022-08-14T16:44:23.164Z,99341.78
2022-08-14T16:49:50.567Z,99337.06
2022-08-14T16:54:48.120Z,99337.34
2022-08-14T16:59:52.884Z,99341.78
2022-08-14T17:05:21.527Z,99327.34
2022-08-14T17:10:27.898Z,99326.25
2022-08-14T17:15:25.728Z,99330.66
2022-08-14T17:20:53.604Z,99324.63
2022-08-14T17:25:51.146Z,99322.28
2022-08-14T17:30:51.906Z,99320.22
2022-08-14T17:35:58.424Z,99306.34
2022-08-14T17:41:15.839Z,99312.78
2022-08-14T17:46:17.220Z,99308.97
2022-08-14T17:51:14.477Z,99301.75
2022-08-14T17:56:11.089Z,99312.56
2022-08-14T18:01:12.641Z,99305.19
2022-08-14T18:06:38.780Z,99312.06
2022-08-14T18:11:27.226Z,99309.63
2022-08-14T18:16:43.338Z,99322.31
2022-08-14T18:21:57.343Z,99332.72
2022-08-14T18:27:09.155Z,99328.25
2022-08-14T18:32:38.386Z,99332.44
2022-08-14T18:37:55.839Z,99327.19
2022-08-14T18:42:58.174Z,99318.59
2022-08-14T18:48:14.324Z,99310.72
2022-08-14T18:53:12.723Z,99316.50
2022-08-14T18:58:27.792Z,99310.66
2022-08-14T19:03:34.220Z,99315.19
2022-08-14T19:08:45.364Z,99307.84
2022-08-14T19:13:48.467Z,99307.28
2022-08-14T19:19:00.250Z,99308.28
2022-08-14T19:24:27.139Z,99311.91
2022-08-14T19:29:37.514Z,99306.72
2022-08-14T19:34:52.235Z,99296.03
2022-08-14T19:39:55.428Z,99297.47
2022-08-14T19:44:53.832Z,99295.81
2022-08-14T19:50:08.752Z,99296.94
2022-08-14T19:55:18.055Z,99295.91
2022-08-14T20:00:28.270Z,99295.69
2022-08-14T20:05:26.576Z,99302.53
2022-08-14T20:11:04.939Z,99304.25
2022-08-14T20:15:53.972Z,99303.47
2022-08-14T20:20:50.392Z,99298.81
2022-08-14T20:25:56.649Z,99291.75
2022-08-14T20:31:15.749Z,99302.16
2022-08-14T20:36:26.520Z,99292.94
2022-08-14T20:41:23.612Z,99289.75
2022-08-14T20:46:29.549Z,99282.75
2022-08-14T20:51:37.097Z,99293.38
2022-08-14T20:56:37.876Z,99285.56
2022-08-14T21:01:36.099Z,99281.94
2022-08-14T21:07:22.751Z,99276.25
2022-08-14T21:12:03.005Z,99278.03
2022-08-14T21:17:00.010Z,99273.41
2022-08-14T21:21:57.260Z,99269.97
2022-08-14T21:27:02.066Z,99272.53
2022-08-14T21:32:20.804Z,99265.84
2022-08-14T21:37:17.519Z,99273.16
2022-08-14T21:42:14.092Z,99271.22
2022-08-14T21:47:16.076Z,99269.06
2022-08-14T21:52:49.451Z,99268.53
2022-08-14T21:57:56.068Z,99267.81
2022-08-14T22:02:52.852Z,99266.31
2022-08-14T22:07:54.193Z,99271.66
2022-08-14T22:13:00.465Z,99269.25
2022-08-14T22:17:59.664Z,99265.19
2022-08-14T22:22:58.111Z,99269.38
2022-08-14T22:27:55.835Z,99264.91
2022-08-14T22:32:57.747Z,99250.72
2022-08-14T22:38:01.692Z,99253.91
2022-08-14T22:43:12.131Z,99253.78
2022-08-14T22:48:12.752Z,99248.44
2022-08-14T22:53:12.412Z,99243.78
2022-08-14T22:58:08.825Z,99247.41
2022-08-14T23:03:17.574Z,99251.06
2022-08-14T23:08:57.536Z,99256.03
2022-08-14T23:13:32.914Z,99249.41
2022-08-14T23:18:30.244Z,99244.75
2022-08-14T23:23:27.175Z,99244.50
2022-08-14T23:28:34.074Z,99240.66
2022-08-14T23:33:45.644Z,99238.78
2022-08-14T23:38:48.927Z,99241.50
2022-08-14T23:43:54.380Z,99231.47
2022-08-14T23:48:50.851Z,99224.84
2022-08-14T23:53:51.427Z,99232.88
2022-08-14T23:58:49.090Z,99221.47
